sensor_id;sensor_type;location;lat;lon;timestamp;P1;durP1;ratioP1;P2;durP2;ratioP2
20138;SDS011;10230;51.502;10.800;2023-06-19T00:02:20;3.63;;;3.25;;
20138;SDS011;10230;51.502;10.800;2023-06-19T00:04:46;3.38;;;2.80;;
20138;SDS011;10230;51.502;10.800;2023-06-19T00:07:12;3.90;;;2.88;;
20138;SDS011;10230;51.502;10.800;2023-06-19T00:09:38;3.00;;;2.63;;
20138;SDS011;10230;51.502;10.800;2023-06-19T00:12:04;4.72;;;2.83;;
20138;SDS011;10230;51.502;10.800;2023-06-19T00:14:31;4.80;;;2.90;;
20138;SDS011;10230;51.502;10.800;2023-06-19T00:16:57;4.30;;;2.75;;
20138;SDS011;10230;51.502;10.800;2023-06-19T00:19:25;3.78;;;2.72;;
20138;SDS011;10230;51.502;10.800;2023-06-19T00:21:51;3.00;;;2.58;;
20138;SDS011;10230;51.502;10.800;2023-06-19T00:24:22;3.28;;;2.70;;
20138;SDS011;10230;51.502;10.800;2023-06-19T00:26:48;3.72;;;2.88;;
20138;SDS011;10230;51.502;10.800;2023-06-19T00:29:14;4.38;;;3.22;;
20138;SDS011;10230;51.502;10.800;2023-06-19T00:31:40;3.63;;;2.78;;
20138;SDS011;10230;51.502;10.800;2023-06-19T00:34:06;3.53;;;3.03;;
20138;SDS011;10230;51.502;10.800;2023-06-19T00:36:32;5.25;;;3.00;;
20138;SDS011;10230;51.502;10.800;2023-06-19T00:39:05;3.70;;;3.10;;
20138;SDS011;10230;51.502;10.800;2023-06-19T00:41:31;4.13;;;2.97;;
20138;SDS011;10230;51.502;10.800;2023-06-19T00:43:57;3.25;;;2.90;;
20138;SDS011;10230;51.502;10.800;2023-06-19T00:46:23;4.28;;;3.08;;
20138;SDS011;10230;51.502;10.800;2023-06-19T00:48:49;3.13;;;2.83;;
20138;SDS011;10230;51.502;10.800;2023-06-19T00:51:15;2.85;;;2.28;;
20138;SDS011;10230;51.502;10.800;2023-06-19T00:53:41;3.15;;;2.55;;
20138;SDS011;10230;51.502;10.800;2023-06-19T00:56:07;3.00;;;2.60;;
20138;SDS011;10230;51.502;10.800;2023-06-19T00:58:34;3.97;;;2.80;;
20138;SDS011;10230;51.502;10.800;2023-06-19T01:01:00;3.13;;;2.65;;
20138;SDS011;10230;51.502;10.800;2023-06-19T01:03:27;3.95;;;2.83;;
20138;SDS011;10230;51.502;10.800;2023-06-19T01:05:53;2.80;;;2.45;;
20138;SDS011;10230;51.502;10.800;2023-06-19T01:11:05;2.72;;;2.33;;
20138;SDS011;10230;51.502;10.800;2023-06-19T01:13:33;5.55;;;3.03;;
20138;SDS011;10230;51.502;10.800;2023-06-19T01:16:01;2.75;;;2.50;;
20138;SDS011;10230;51.502;10.800;2023-06-19T01:18:28;3.60;;;2.90;;
20138;SDS011;10230;51.502;10.800;2023-06-19T01:20:55;3.13;;;2.55;;
20138;SDS011;10230;51.502;10.800;2023-06-19T01:23:21;3.40;;;2.70;;
20138;SDS011;10230;51.502;10.800;2023-06-19T01:25:47;4.40;;;2.75;;
20138;SDS011;10230;51.502;10.800;2023-06-19T01:28:13;4.25;;;3.00;;
20138;SDS011;10230;51.502;10.800;2023-06-19T01:30:40;4.07;;;2.75;;
20138;SDS011;10230;51.502;10.800;2023-06-19T01:35:34;4.38;;;2.90;;
20138;SDS011;10230;51.502;10.800;2023-06-19T01:38:01;2.67;;;2.47;;
20138;SDS011;10230;51.502;10.800;2023-06-19T01:40:28;2.85;;;2.55;;
20138;SDS011;10230;51.502;10.800;2023-06-19T01:42:57;4.70;;;2.78;;
20138;SDS011;10230;51.502;10.800;2023-06-19T01:45:24;6.32;;;3.15;;
20138;SDS011;10230;51.502;10.800;2023-06-19T01:47:50;3.75;;;3.05;;
20138;SDS011;10230;51.502;10.800;2023-06-19T01:50:16;5.28;;;2.60;;
20138;SDS011;10230;51.502;10.800;2023-06-19T01:52:44;4.03;;;3.00;;
20138;SDS011;10230;51.502;10.800;2023-06-19T01:55:10;4.80;;;3.20;;
20138;SDS011;10230;51.502;10.800;2023-06-19T01:57:36;5.10;;;3.08;;
20138;SDS011;10230;51.502;10.800;2023-06-19T02:00:03;3.92;;;2.75;;
20138;SDS011;10230;51.502;10.800;2023-06-19T02:02:32;3.78;;;3.25;;
20138;SDS011;10230;51.502;10.800;2023-06-19T02:04:58;4.78;;;3.22;;
20138;SDS011;10230;51.502;10.800;2023-06-19T02:07:24;3.20;;;2.75;;
20138;SDS011;10230;51.502;10.800;2023-06-19T02:09:50;3.17;;;2.85;;
20138;SDS011;10230;51.502;10.800;2023-06-19T02:12:16;3.30;;;2.78;;
20138;SDS011;10230;51.502;10.800;2023-06-19T02:14:42;3.80;;;3.28;;
20138;SDS011;10230;51.502;10.800;2023-06-19T02:17:08;3.00;;;2.55;;
20138;SDS011;10230;51.502;10.800;2023-06-19T02:19:34;3.55;;;2.97;;
20138;SDS011;10230;51.502;10.800;2023-06-19T02:22:00;3.90;;;3.10;;
20138;SDS011;10230;51.502;10.800;2023-06-19T02:24:26;3.45;;;3.15;;
20138;SDS011;10230;51.502;10.800;2023-06-19T02:26:52;3.85;;;2.75;;
20138;SDS011;10230;51.502;10.800;2023-06-19T02:29:18;3.40;;;2.78;;
20138;SDS011;10230;51.502;10.800;2023-06-19T02:31:45;4.25;;;3.60;;
20138;SDS011;10230;51.502;10.800;2023-06-19T02:34:11;4.75;;;3.60;;
20138;SDS011;10230;51.502;10.800;2023-06-19T02:36:37;3.92;;;3.53;;
20138;SDS011;10230;51.502;10.800;2023-06-19T02:39:04;3.45;;;3.05;;
20138;SDS011;10230;51.502;10.800;2023-06-19T02:41:31;4.22;;;2.75;;
20138;SDS011;10230;51.502;10.800;2023-06-19T02:43:58;3.72;;;2.75;;
20138;SDS011;10230;51.502;10.800;2023-06-19T02:46:24;3.10;;;2.80;;
20138;SDS011;10230;51.502;10.800;2023-06-19T02:48:53;3.63;;;2.88;;
20138;SDS011;10230;51.502;10.800;2023-06-19T02:51:20;4.10;;;3.15;;
20138;SDS011;10230;51.502;10.800;2023-06-19T02:53:46;4.63;;;4.05;;
20138;SDS011;10230;51.502;10.800;2023-06-19T02:56:14;4.45;;;2.95;;
20138;SDS011;10230;51.502;10.800;2023-06-19T02:58:40;3.75;;;3.33;;
20138;SDS011;10230;51.502;10.800;2023-06-19T03:01:06;4.28;;;3.42;;
20138;SDS011;10230;51.502;10.800;2023-06-19T03:03:33;4.35;;;3.85;;
20138;SDS011;10230;51.502;10.800;2023-06-19T03:06:06;5.75;;;3.90;;
20138;SDS011;10230;51.502;10.800;2023-06-19T03:08:35;5.03;;;3.72;;
20138;SDS011;10230;51.502;10.800;2023-06-19T03:11:02;3.88;;;3.20;;
20138;SDS011;10230;51.502;10.800;2023-06-19T03:13:44;3.97;;;3.13;;
20138;SDS011;10230;51.502;10.800;2023-06-19T03:16:11;4.60;;;3.63;;
20138;SDS011;10230;51.502;10.800;2023-06-19T03:18:37;4.30;;;3.63;;
20138;SDS011;10230;51.502;10.800;2023-06-19T03:21:03;4.15;;;3.17;;
20138;SDS011;10230;51.502;10.800;2023-06-19T03:23:29;3.65;;;3.08;;
20138;SDS011;10230;51.502;10.800;2023-06-19T03:25:55;5.97;;;4.18;;
20138;SDS011;10230;51.502;10.800;2023-06-19T03:28:22;5.13;;;3.78;;
20138;SDS011;10230;51.502;10.800;2023-06-19T03:30:49;4.30;;;3.40;;
20138;SDS011;10230;51.502;10.800;2023-06-19T03:33:15;7.88;;;3.60;;
20138;SDS011;10230;51.502;10.800;2023-06-19T03:35:42;4.75;;;3.60;;
20138;SDS011;10230;51.502;10.800;2023-06-19T03:38:08;5.95;;;4.47;;
20138;SDS011;10230;51.502;10.800;2023-06-19T03:40:34;13.63;;;7.18;;
20138;SDS011;10230;51.502;10.800;2023-06-19T03:43:00;10.40;;;6.18;;
20138;SDS011;10230;51.502;10.800;2023-06-19T03:45:26;6.82;;;4.68;;
20138;SDS011;10230;51.502;10.800;2023-06-19T03:47:52;5.20;;;4.10;;
20138;SDS011;10230;51.502;10.800;2023-06-19T03:50:18;5.38;;;4.20;;
20138;SDS011;10230;51.502;10.800;2023-06-19T03:52:45;4.93;;;3.97;;
20138;SDS011;10230;51.502;10.800;2023-06-19T03:55:11;4.45;;;3.63;;
20138;SDS011;10230;51.502;10.800;2023-06-19T03:57:37;5.22;;;3.70;;
20138;SDS011;10230;51.502;10.800;2023-06-19T04:00:03;7.25;;;4.40;;
20138;SDS011;10230;51.502;10.800;2023-06-19T04:02:33;5.40;;;4.47;;
20138;SDS011;10230;51.502;10.800;2023-06-19T04:04:59;5.22;;;4.45;;
20138;SDS011;10230;51.502;10.800;2023-06-19T04:07:25;6.35;;;4.18;;
20138;SDS011;10230;51.502;10.800;2023-06-19T04:09:52;4.85;;;3.97;;
20138;SDS011;10230;51.502;10.800;2023-06-19T04:12:18;4.88;;;3.67;;
20138;SDS011;10230;51.502;10.800;2023-06-19T04:14:44;4.22;;;3.60;;
20138;SDS011;10230;51.502;10.800;2023-06-19T04:17:10;5.85;;;3.92;;
20138;SDS011;10230;51.502;10.800;2023-06-19T04:19:35;4.78;;;3.63;;
20138;SDS011;10230;51.502;10.800;2023-06-19T04:22:01;5.30;;;4.18;;
20138;SDS011;10230;51.502;10.800;2023-06-19T04:24:27;4.03;;;3.63;;
20138;SDS011;10230;51.502;10.800;2023-06-19T04:26:54;4.00;;;3.33;;
20138;SDS011;10230;51.502;10.800;2023-06-19T04:29:20;4.70;;;3.65;;
20138;SDS011;10230;51.502;10.800;2023-06-19T04:31:46;4.63;;;3.90;;
20138;SDS011;10230;51.502;10.800;2023-06-19T04:34:15;4.47;;;3.75;;
20138;SDS011;10230;51.502;10.800;2023-06-19T04:36:42;4.13;;;3.58;;
20138;SDS011;10230;51.502;10.800;2023-06-19T04:39:09;6.00;;;4.20;;
20138;SDS011;10230;51.502;10.800;2023-06-19T04:41:35;4.60;;;3.60;;
20138;SDS011;10230;51.502;10.800;2023-06-19T04:44:04;5.82;;;3.85;;
20138;SDS011;10230;51.502;10.800;2023-06-19T04:46:30;5.05;;;4.10;;
20138;SDS011;10230;51.502;10.800;2023-06-19T04:48:56;4.78;;;3.75;;
20138;SDS011;10230;51.502;10.800;2023-06-19T04:51:22;4.68;;;3.63;;
20138;SDS011;10230;51.502;10.800;2023-06-19T04:53:48;4.03;;;3.42;;
20138;SDS011;10230;51.502;10.800;2023-06-19T04:56:14;6.15;;;4.18;;
20138;SDS011;10230;51.502;10.800;2023-06-19T04:58:41;4.97;;;4.35;;
20138;SDS011;10230;51.502;10.800;2023-06-19T05:01:14;5.25;;;4.45;;
20138;SDS011;10230;51.502;10.800;2023-06-19T05:03:40;4.65;;;4.15;;
20138;SDS011;10230;51.502;10.800;2023-06-19T05:06:07;4.43;;;3.38;;
20138;SDS011;10230;51.502;10.800;2023-06-19T05:08:33;5.35;;;3.88;;
20138;SDS011;10230;51.502;10.800;2023-06-19T05:10:59;5.85;;;3.58;;
20138;SDS011;10230;51.502;10.800;2023-06-19T05:13:25;5.85;;;4.18;;
20138;SDS011;10230;51.502;10.800;2023-06-19T05:15:51;5.15;;;4.05;;
20138;SDS011;10230;51.502;10.800;2023-06-19T05:18:17;5.60;;;4.35;;
20138;SDS011;10230;51.502;10.800;2023-06-19T05:20:43;5.65;;;4.55;;
20138;SDS011;10230;51.502;10.800;2023-06-19T05:23:10;4.75;;;4.10;;
20138;SDS011;10230;51.502;10.800;2023-06-19T05:25:36;6.53;;;4.70;;
20138;SDS011;10230;51.502;10.800;2023-06-19T05:28:02;5.10;;;4.60;;
20138;SDS011;10230;51.502;10.800;2023-06-19T05:30:28;5.70;;;4.53;;
20138;SDS011;10230;51.502;10.800;2023-06-19T05:32:55;6.30;;;4.82;;
20138;SDS011;10230;51.502;10.800;2023-06-19T05:35:21;5.10;;;4.13;;
20138;SDS011;10230;51.502;10.800;2023-06-19T05:37:47;4.55;;;4.13;;
20138;SDS011;10230;51.502;10.800;2023-06-19T05:40:13;6.07;;;3.92;;
20138;SDS011;10230;51.502;10.800;2023-06-19T05:42:39;5.93;;;4.20;;
20138;SDS011;10230;51.502;10.800;2023-06-19T05:45:06;5.82;;;4.28;;
20138;SDS011;10230;51.502;10.800;2023-06-19T05:47:32;6.30;;;4.60;;
20138;SDS011;10230;51.502;10.800;2023-06-19T05:49:58;4.63;;;3.97;;
20138;SDS011;10230;51.502;10.800;2023-06-19T05:52:24;7.20;;;5.60;;
20138;SDS011;10230;51.502;10.800;2023-06-19T05:54:51;5.07;;;4.00;;
20138;SDS011;10230;51.502;10.800;2023-06-19T05:57:18;6.00;;;4.70;;
20138;SDS011;10230;51.502;10.800;2023-06-19T05:59:47;5.38;;;3.97;;
20138;SDS011;10230;51.502;10.800;2023-06-19T06:02:13;4.80;;;4.25;;
20138;SDS011;10230;51.502;10.800;2023-06-19T06:04:40;5.18;;;4.15;;
20138;SDS011;10230;51.502;10.800;2023-06-19T06:07:06;6.65;;;4.00;;
20138;SDS011;10230;51.502;10.800;2023-06-19T06:09:32;6.45;;;4.90;;
20138;SDS011;10230;51.502;10.800;2023-06-19T06:11:59;4.78;;;4.00;;
20138;SDS011;10230;51.502;10.800;2023-06-19T06:14:25;5.03;;;4.35;;
20138;SDS011;10230;51.502;10.800;2023-06-19T06:16:51;9.13;;;4.47;;
20138;SDS011;10230;51.502;10.800;2023-06-19T06:19:19;4.10;;;3.67;;
20138;SDS011;10230;51.502;10.800;2023-06-19T06:21:46;6.05;;;3.92;;
20138;SDS011;10230;51.502;10.800;2023-06-19T06:24:12;4.75;;;4.22;;
20138;SDS011;10230;51.502;10.800;2023-06-19T06:26:38;6.57;;;4.68;;
20138;SDS011;10230;51.502;10.800;2023-06-19T06:29:04;8.23;;;5.10;;
20138;SDS011;10230;51.502;10.800;2023-06-19T06:31:30;10.52;;;5.95;;
20138;SDS011;10230;51.502;10.800;2023-06-19T06:33:56;9.95;;;5.30;;
20138;SDS011;10230;51.502;10.800;2023-06-19T06:36:22;9.82;;;6.78;;
20138;SDS011;10230;51.502;10.800;2023-06-19T06:38:48;8.85;;;6.90;;
20138;SDS011;10230;51.502;10.800;2023-06-19T06:41:14;7.53;;;5.68;;
20138;SDS011;10230;51.502;10.800;2023-06-19T06:43:40;6.40;;;5.07;;
20138;SDS011;10230;51.502;10.800;2023-06-19T06:46:10;8.18;;;6.22;;
20138;SDS011;10230;51.502;10.800;2023-06-19T06:48:36;7.15;;;5.53;;
20138;SDS011;10230;51.502;10.800;2023-06-19T06:51:02;7.40;;;5.22;;
20138;SDS011;10230;51.502;10.800;2023-06-19T06:53:28;8.35;;;5.10;;
20138;SDS011;10230;51.502;10.800;2023-06-19T06:55:57;7.47;;;4.70;;
20138;SDS011;10230;51.502;10.800;2023-06-19T06:58:23;7.03;;;4.93;;
20138;SDS011;10230;51.502;10.800;2023-06-19T07:00:49;7.55;;;5.10;;
20138;SDS011;10230;51.502;10.800;2023-06-19T07:03:16;8.13;;;5.18;;
20138;SDS011;10230;51.502;10.800;2023-06-19T07:05:43;6.55;;;4.72;;
20138;SDS011;10230;51.502;10.800;2023-06-19T07:08:09;7.43;;;4.38;;
20138;SDS011;10230;51.502;10.800;2023-06-19T07:10:35;5.93;;;5.20;;
20138;SDS011;10230;51.502;10.800;2023-06-19T07:13:01;6.82;;;5.25;;
20138;SDS011;10230;51.502;10.800;2023-06-19T07:15:27;8.10;;;4.63;;
20138;SDS011;10230;51.502;10.800;2023-06-19T07:17:53;5.53;;;4.72;;
20138;SDS011;10230;51.502;10.800;2023-06-19T07:20:19;8.10;;;5.05;;
20138;SDS011;10230;51.502;10.800;2023-06-19T07:22:45;8.93;;;5.38;;
20138;SDS011;10230;51.502;10.800;2023-06-19T07:25:11;9.80;;;6.13;;
20138;SDS011;10230;51.502;10.800;2023-06-19T07:27:38;8.70;;;5.72;;
20138;SDS011;10230;51.502;10.800;2023-06-19T07:30:05;7.32;;;5.55;;
20138;SDS011;10230;51.502;10.800;2023-06-19T07:32:32;6.57;;;5.68;;
20138;SDS011;10230;51.502;10.800;2023-06-19T07:34:58;8.20;;;6.18;;
20138;SDS011;10230;51.502;10.800;2023-06-19T07:37:24;6.40;;;5.70;;
20138;SDS011;10230;51.502;10.800;2023-06-19T07:39:50;7.35;;;5.53;;
20138;SDS011;10230;51.502;10.800;2023-06-19T07:42:17;6.75;;;5.28;;
20138;SDS011;10230;51.502;10.800;2023-06-19T07:44:43;5.78;;;4.93;;
20138;SDS011;10230;51.502;10.800;2023-06-19T07:47:09;8.02;;;5.30;;
20138;SDS011;10230;51.502;10.800;2023-06-19T07:49:36;7.03;;;5.38;;
20138;SDS011;10230;51.502;10.800;2023-06-19T07:52:02;6.45;;;5.35;;
20138;SDS011;10230;51.502;10.800;2023-06-19T07:54:28;6.60;;;4.82;;
20138;SDS011;10230;51.502;10.800;2023-06-19T07:56:54;4.85;;;4.13;;
20138;SDS011;10230;51.502;10.800;2023-06-19T07:59:21;5.82;;;4.90;;
20138;SDS011;10230;51.502;10.800;2023-06-19T08:01:47;5.95;;;4.80;;
20138;SDS011;10230;51.502;10.800;2023-06-19T08:04:14;6.15;;;5.35;;
20138;SDS011;10230;51.502;10.800;2023-06-19T08:06:40;4.82;;;4.30;;
20138;SDS011;10230;51.502;10.800;2023-06-19T08:09:06;5.82;;;4.85;;
20138;SDS011;10230;51.502;10.800;2023-06-19T08:11:32;5.20;;;4.70;;
20138;SDS011;10230;51.502;10.800;2023-06-19T08:13:58;5.05;;;4.60;;
20138;SDS011;10230;51.502;10.800;2023-06-19T08:16:24;5.57;;;4.78;;
20138;SDS011;10230;51.502;10.800;2023-06-19T08:18:51;6.80;;;4.85;;
20138;SDS011;10230;51.502;10.800;2023-06-19T08:21:17;5.07;;;4.53;;
20138;SDS011;10230;51.502;10.800;2023-06-19T08:23:45;6.15;;;4.35;;
20138;SDS011;10230;51.502;10.800;2023-06-19T08:26:11;4.85;;;4.38;;
20138;SDS011;10230;51.502;10.800;2023-06-19T08:28:38;6.28;;;4.80;;
20138;SDS011;10230;51.502;10.800;2023-06-19T08:31:06;7.70;;;5.32;;
20138;SDS011;10230;51.502;10.800;2023-06-19T08:33:33;5.50;;;4.38;;
20138;SDS011;10230;51.502;10.800;2023-06-19T08:36:03;5.00;;;4.45;;
20138;SDS011;10230;51.502;10.800;2023-06-19T08:38:29;6.18;;;5.32;;
20138;SDS011;10230;51.502;10.800;2023-06-19T08:40:55;5.07;;;4.57;;
20138;SDS011;10230;51.502;10.800;2023-06-19T08:43:21;5.30;;;4.72;;
20138;SDS011;10230;51.502;10.800;2023-06-19T08:45:55;5.95;;;4.95;;
20138;SDS011;10230;51.502;10.800;2023-06-19T08:48:26;5.20;;;4.55;;
20138;SDS011;10230;51.502;10.800;2023-06-19T08:50:53;6.63;;;5.15;;
20138;SDS011;10230;51.502;10.800;2023-06-19T08:53:20;7.53;;;5.07;;
20138;SDS011;10230;51.502;10.800;2023-06-19T08:55:47;5.55;;;5.05;;
20138;SDS011;10230;51.502;10.800;2023-06-19T08:58:21;5.65;;;5.13;;
20138;SDS011;10230;51.502;10.800;2023-06-19T09:00:48;5.30;;;4.80;;
20138;SDS011;10230;51.502;10.800;2023-06-19T09:03:18;7.50;;;4.40;;
20138;SDS011;10230;51.502;10.800;2023-06-19T09:05:45;5.30;;;4.80;;
20138;SDS011;10230;51.502;10.800;2023-06-19T09:08:14;4.90;;;4.50;;
20138;SDS011;10230;51.502;10.800;2023-06-19T09:10:53;5.03;;;4.53;;
20138;SDS011;10230;51.502;10.800;2023-06-19T09:13:22;4.68;;;4.22;;
20138;SDS011;10230;51.502;10.800;2023-06-19T09:15:56;5.22;;;4.70;;
20138;SDS011;10230;51.502;10.800;2023-06-19T09:18:28;6.72;;;4.70;;
20138;SDS011;10230;51.502;10.800;2023-06-19T09:20:55;4.85;;;4.45;;
20138;SDS011;10230;51.502;10.800;2023-06-19T09:23:22;5.35;;;4.85;;
20138;SDS011;10230;51.502;10.800;2023-06-19T09:25:49;6.30;;;5.70;;
20138;SDS011;10230;51.502;10.800;2023-06-19T09:28:16;5.78;;;5.13;;
20138;SDS011;10230;51.502;10.800;2023-06-19T09:33:28;6.20;;;5.70;;
20138;SDS011;10230;51.502;10.800;2023-06-19T09:35:56;5.72;;;5.13;;
20138;SDS011;10230;51.502;10.800;2023-06-19T09:38:25;4.88;;;4.47;;
20138;SDS011;10230;51.502;10.800;2023-06-19T09:40:52;4.93;;;4.50;;
20138;SDS011;10230;51.502;10.800;2023-06-19T09:43:19;5.40;;;4.55;;
20138;SDS011;10230;51.502;10.800;2023-06-19T09:45:49;5.13;;;4.72;;
20138;SDS011;10230;51.502;10.800;2023-06-19T09:48:19;5.03;;;4.63;;
20138;SDS011;10230;51.502;10.800;2023-06-19T09:50:51;6.05;;;5.55;;
20138;SDS011;10230;51.502;10.800;2023-06-19T09:53:23;5.55;;;5.15;;
20138;SDS011;10230;51.502;10.800;2023-06-19T09:55:49;5.40;;;4.88;;
20138;SDS011;10230;51.502;10.800;2023-06-19T09:58:16;5.30;;;4.90;;
20138;SDS011;10230;51.502;10.800;2023-06-19T10:00:46;5.18;;;4.65;;
20138;SDS011;10230;51.502;10.800;2023-06-19T10:03:14;5.05;;;4.55;;
20138;SDS011;10230;51.502;10.800;2023-06-19T10:05:41;4.88;;;4.47;;
20138;SDS011;10230;51.502;10.800;2023-06-19T10:08:07;4.85;;;4.45;;
20138;SDS011;10230;51.502;10.800;2023-06-19T10:10:33;4.72;;;4.32;;
20138;SDS011;10230;51.502;10.800;2023-06-19T10:13:00;5.15;;;4.65;;
20138;SDS011;10230;51.502;10.800;2023-06-19T10:15:40;4.65;;;4.20;;
20138;SDS011;10230;51.502;10.800;2023-06-19T10:18:08;4.93;;;4.47;;
20138;SDS011;10230;51.502;10.800;2023-06-19T10:20:41;5.07;;;3.90;;
20138;SDS011;10230;51.502;10.800;2023-06-19T10:23:13;4.55;;;4.25;;
20138;SDS011;10230;51.502;10.800;2023-06-19T10:25:43;4.40;;;4.00;;
20138;SDS011;10230;51.502;10.800;2023-06-19T10:28:17;4.78;;;3.80;;
20138;SDS011;10230;51.502;10.800;2023-06-19T10:31:07;4.22;;;3.92;;
20138;SDS011;10230;51.502;10.800;2023-06-19T10:33:36;4.35;;;3.95;;
20138;SDS011;10230;51.502;10.800;2023-06-19T10:38:51;4.80;;;4.03;;
20138;SDS011;10230;51.502;10.800;2023-06-19T10:41:17;3.47;;;3.22;;
20138;SDS011;10230;51.502;10.800;2023-06-19T10:46:42;3.90;;;3.60;;
20138;SDS011;10230;51.502;10.800;2023-06-19T10:49:08;4.13;;;3.83;;
20138;SDS011;10230;51.502;10.800;2023-06-19T10:51:36;3.67;;;3.38;;
20138;SDS011;10230;51.502;10.800;2023-06-19T10:54:03;5.90;;;3.67;;
20138;SDS011;10230;51.502;10.800;2023-06-19T10:56:30;3.60;;;3.40;;
20138;SDS011;10230;51.502;10.800;2023-06-19T11:01:37;3.60;;;3.40;;
20138;SDS011;10230;51.502;10.800;2023-06-19T11:04:14;3.97;;;3.67;;
20138;SDS011;10230;51.502;10.800;2023-06-19T11:06:41;3.83;;;3.53;;
20138;SDS011;10230;51.502;10.800;2023-06-19T11:09:08;4.05;;;3.75;;
20138;SDS011;10230;51.502;10.800;2023-06-19T11:14:08;3.63;;;3.30;;
20138;SDS011;10230;51.502;10.800;2023-06-19T11:16:35;4.82;;;4.30;;
20138;SDS011;10230;51.502;10.800;2023-06-19T11:19:03;4.10;;;3.67;;
20138;SDS011;10230;51.502;10.800;2023-06-19T11:21:35;3.70;;;3.50;;
20138;SDS011;10230;51.502;10.800;2023-06-19T11:24:04;4.45;;;3.70;;
20138;SDS011;10230;51.502;10.800;2023-06-19T11:26:40;4.18;;;3.80;;
20138;SDS011;10230;51.502;10.800;2023-06-19T11:29:16;4.13;;;3.70;;
20138;SDS011;10230;51.502;10.800;2023-06-19T11:32:03;4.40;;;3.42;;
20138;SDS011;10230;51.502;10.800;2023-06-19T11:34:34;4.25;;;3.60;;
20138;SDS011;10230;51.502;10.800;2023-06-19T11:37:02;3.85;;;3.55;;
20138;SDS011;10230;51.502;10.800;2023-06-19T11:39:36;4.20;;;3.85;;
20138;SDS011;10230;51.502;10.800;2023-06-19T11:42:02;4.18;;;3.83;;
20138;SDS011;10230;51.502;10.800;2023-06-19T11:44:28;4.47;;;4.18;;
20138;SDS011;10230;51.502;10.800;2023-06-19T11:46:56;5.45;;;4.55;;
20138;SDS011;10230;51.502;10.800;2023-06-19T11:49:25;4.57;;;4.28;;
20138;SDS011;10230;51.502;10.800;2023-06-19T11:51:51;4.75;;;4.30;;
20138;SDS011;10230;51.502;10.800;2023-06-19T11:54:19;4.70;;;4.30;;
20138;SDS011;10230;51.502;10.800;2023-06-19T11:56:45;4.20;;;3.90;;
20138;SDS011;10230;51.502;10.800;2023-06-19T11:59:12;3.72;;;3.53;;
20138;SDS011;10230;51.502;10.800;2023-06-19T12:01:39;4.72;;;4.32;;
20138;SDS011;10230;51.502;10.800;2023-06-19T12:04:05;4.50;;;4.13;;
20138;SDS011;10230;51.502;10.800;2023-06-19T12:06:31;4.13;;;3.80;;
20138;SDS011;10230;51.502;10.800;2023-06-19T12:08:56;4.40;;;4.10;;
20138;SDS011;10230;51.502;10.800;2023-06-19T12:11:22;4.30;;;4.00;;
20138;SDS011;10230;51.502;10.800;2023-06-19T12:13:49;4.90;;;4.13;;
20138;SDS011;10230;51.502;10.800;2023-06-19T12:16:15;4.53;;;4.13;;
20138;SDS011;10230;51.502;10.800;2023-06-19T12:18:41;4.68;;;4.25;;
20138;SDS011;10230;51.502;10.800;2023-06-19T12:21:06;5.20;;;4.75;;
20138;SDS011;10230;51.502;10.800;2023-06-19T12:23:32;4.90;;;4.60;;
20138;SDS011;10230;51.502;10.800;2023-06-19T12:25:58;4.78;;;4.40;;
20138;SDS011;10230;51.502;10.800;2023-06-19T12:28:24;4.85;;;4.45;;
20138;SDS011;10230;51.502;10.800;2023-06-19T12:30:50;5.72;;;5.22;;
20138;SDS011;10230;51.502;10.800;2023-06-19T12:33:17;5.25;;;4.85;;
20138;SDS011;10230;51.502;10.800;2023-06-19T12:35:43;4.72;;;4.10;;
20138;SDS011;10230;51.502;10.800;2023-06-19T12:38:09;4.25;;;3.85;;
20138;SDS011;10230;51.502;10.800;2023-06-19T12:40:36;4.65;;;4.35;;
20138;SDS011;10230;51.502;10.800;2023-06-19T12:43:02;5.22;;;4.82;;
20138;SDS011;10230;51.502;10.800;2023-06-19T12:45:28;5.05;;;4.65;;
20138;SDS011;10230;51.502;10.800;2023-06-19T12:47:54;4.82;;;4.47;;
20138;SDS011;10230;51.502;10.800;2023-06-19T12:50:19;5.43;;;4.93;;
20138;SDS011;10230;51.502;10.800;2023-06-19T12:52:45;5.47;;;5.03;;
20138;SDS011;10230;51.502;10.800;2023-06-19T12:55:11;4.85;;;4.15;;
20138;SDS011;10230;51.502;10.800;2023-06-19T12:57:36;4.97;;;4.57;;
20138;SDS011;10230;51.502;10.800;2023-06-19T13:00:02;4.75;;;4.35;;
20138;SDS011;10230;51.502;10.800;2023-06-19T13:02:33;4.15;;;3.85;;
20138;SDS011;10230;51.502;10.800;2023-06-19T13:04:59;4.57;;;4.18;;
20138;SDS011;10230;51.502;10.800;2023-06-19T13:07:24;5.60;;;4.63;;
20138;SDS011;10230;51.502;10.800;2023-06-19T13:09:50;5.20;;;4.70;;
20138;SDS011;10230;51.502;10.800;2023-06-19T13:12:15;5.78;;;4.60;;
20138;SDS011;10230;51.502;10.800;2023-06-19T13:14:41;4.07;;;3.78;;
20138;SDS011;10230;51.502;10.800;2023-06-19T13:17:07;5.07;;;4.57;;
20138;SDS011;10230;51.502;10.800;2023-06-19T13:19:33;4.25;;;3.95;;
20138;SDS011;10230;51.502;10.800;2023-06-19T13:21:58;4.45;;;3.90;;
20138;SDS011;10230;51.502;10.800;2023-06-19T13:24:24;4.65;;;3.88;;
20138;SDS011;10230;51.502;10.800;2023-06-19T13:26:52;5.03;;;4.07;;
20138;SDS011;10230;51.502;10.800;2023-06-19T13:29:18;3.85;;;3.55;;
20138;SDS011;10230;51.502;10.800;2023-06-19T13:31:44;4.03;;;3.63;;
20138;SDS011;10230;51.502;10.800;2023-06-19T13:34:10;4.40;;;4.10;;
20138;SDS011;10230;51.502;10.800;2023-06-19T13:36:36;3.90;;;3.60;;
20138;SDS011;10230;51.502;10.800;2023-06-19T13:39:02;4.05;;;3.40;;
20138;SDS011;10230;51.502;10.800;2023-06-19T13:41:28;3.80;;;3.30;;
20138;SDS011;10230;51.502;10.800;2023-06-19T13:43:56;4.15;;;3.80;;
20138;SDS011;10230;51.502;10.800;2023-06-19T13:46:21;4.00;;;3.60;;
20138;SDS011;10230;51.502;10.800;2023-06-19T13:48:47;3.33;;;3.03;;
20138;SDS011;10230;51.502;10.800;2023-06-19T13:51:16;3.67;;;3.38;;
20138;SDS011;10230;51.502;10.800;2023-06-19T13:53:45;3.65;;;2.63;;
20138;SDS011;10230;51.502;10.800;2023-06-19T13:56:11;3.67;;;3.38;;
20138;SDS011;10230;51.502;10.800;2023-06-19T13:58:37;4.15;;;3.30;;
20138;SDS011;10230;51.502;10.800;2023-06-19T14:01:04;3.55;;;3.20;;
20138;SDS011;10230;51.502;10.800;2023-06-19T14:03:30;3.20;;;2.90;;
20138;SDS011;10230;51.502;10.800;2023-06-19T14:05:56;4.00;;;3.60;;
20138;SDS011;10230;51.502;10.800;2023-06-19T14:08:22;3.90;;;3.53;;
20138;SDS011;10230;51.502;10.800;2023-06-19T14:10:49;3.90;;;3.03;;
20138;SDS011;10230;51.502;10.800;2023-06-19T14:13:15;3.17;;;2.88;;
20138;SDS011;10230;51.502;10.800;2023-06-19T14:15:40;3.15;;;2.85;;
20138;SDS011;10230;51.502;10.800;2023-06-19T14:18:06;3.38;;;2.80;;
20138;SDS011;10230;51.502;10.800;2023-06-19T14:20:32;4.38;;;2.67;;
20138;SDS011;10230;51.502;10.800;2023-06-19T14:22:58;3.75;;;3.45;;
20138;SDS011;10230;51.502;10.800;2023-06-19T14:25:23;3.72;;;3.15;;
20138;SDS011;10230;51.502;10.800;2023-06-19T14:27:51;3.10;;;2.90;;
20138;SDS011;10230;51.502;10.800;2023-06-19T14:30:17;2.58;;;2.38;;
20138;SDS011;10230;51.502;10.800;2023-06-19T14:32:43;2.47;;;2.28;;
20138;SDS011;10230;51.502;10.800;2023-06-19T14:35:09;3.10;;;2.80;;
20138;SDS011;10230;51.502;10.800;2023-06-19T14:37:35;3.10;;;2.80;;
20138;SDS011;10230;51.502;10.800;2023-06-19T14:40:02;2.83;;;2.53;;
20138;SDS011;10230;51.502;10.800;2023-06-19T14:42:28;2.58;;;2.38;;
20138;SDS011;10230;51.502;10.800;2023-06-19T14:44:54;3.22;;;2.95;;
20138;SDS011;10230;51.502;10.800;2023-06-19T14:47:20;2.60;;;2.40;;
20138;SDS011;10230;51.502;10.800;2023-06-19T14:49:46;3.10;;;2.80;;
20138;SDS011;10230;51.502;10.800;2023-06-19T14:52:12;3.95;;;2.80;;